Time;durP1;ratioP1;P1;durP2;ratioP2;P2;SDS_P1;SDS_P2;PMS_P1;PMS_P2;Temp;Humidity;BMP_temperature;BMP_pressure;BME280_temperature;BME280_humidity;BME280_pressure;Samples;Min_cycle;Max_cycle;Signal;HPM_P1;HPM_P2
2023/10/25 00:01:42;;;;;;;1.58;0.82;;;;;;;7.59;82.50;94679.56;6271353;28;20052;-66
2023/10/25 00:04:46;;;;;;;0.80;0.80;;;;;;;7.61;82.62;94682.84;6283055;28;20041;-67
2023/10/25 00:07:48;;;;;;;1.13;0.85;;;;;;;7.58;82.56;94670.88;6281161;28;20083;-66
2023/10/25 00:10:59;;;;;;;0.63;0.55;;;;;;;7.58;82.85;94665.63;6281321;28;20135;-66
2023/10/25 00:14:03;;;;;;;2.28;0.95;;;;;;;7.54;83.06;94664.25;6273769;28;20041;-68
2023/10/25 00:17:08;;;;;;;0.77;0.60;;;;;;;7.62;82.85;94663.59;6275909;28;20060;-67
2023/10/25 00:20:09;;;;;;;2.78;1.13;;;;;;;7.48;83.13;94659.56;6277845;28;20040;-66
2023/10/25 00:23:11;;;;;;;1.45;1.00;;;;;;;7.51;83.08;94654.06;6281820;28;20056;-66
2023/10/25 00:26:12;;;;;;;1.40;1.10;;;;;;;7.69;82.33;94661.25;6282914;28;20423;-67
2023/10/25 00:29:16;;;;;;;1.45;0.93;;;;;;;7.59;82.72;94656.84;6274253;28;20037;-66
2023/10/25 00:32:20;;;;;;;1.48;0.85;;;;;;;7.55;82.39;94652.81;6265714;28;20036;-67
2023/10/25 00:35:24;;;;;;;1.38;1.00;;;;;;;7.49;82.72;94655.97;6277278;28;20036;-66
2023/10/25 00:38:28;;;;;;;1.65;1.10;;;;;;;7.53;82.29;94652.16;6274541;28;20067;-67
2023/10/25 00:41:31;;;;;;;0.90;0.70;;;;;;;7.45;82.84;94638.09;6282016;28;20036;-67
2023/10/25 00:44:33;;;;;;;0.90;0.80;;;;;;;7.46;82.67;94640.56;6281381;28;20041;-66
2023/10/25 00:47:35;;;;;;;1.80;0.98;;;;;;;7.47;82.39;94636.97;6273430;28;20056;-66
2023/10/25 00:50:36;;;;;;;0.82;0.77;;;;;;;7.54;82.33;94634.66;6279009;28;20079;-66
2023/10/25 00:53:40;;;;;;;1.10;0.57;;;;;;;7.51;82.31;94638.38;6275998;28;20040;-66
2023/10/25 00:56:45;;;;;;;1.70;0.73;;;;;;;7.50;82.84;94636.72;6275263;28;20045;-66
2023/10/25 00:59:53;;;;;;;0.70;0.57;;;;;;;7.55;82.22;94618.78;6282154;28;20049;-65
2023/10/25 01:02:59;;;;;;;1.10;0.75;;;;;;;7.52;82.58;94619.06;6266343;28;20060;-65
2023/10/25 01:06:03;;;;;;;0.77;0.63;;;;;;;7.51;82.85;94620.03;6277914;28;20044;-66
2023/10/25 01:09:05;;;;;;;1.45;0.82;;;;;;;7.56;82.64;94609.19;6282277;28;20040;-67
2023/10/25 01:12:07;;;;;;;1.42;0.60;;;;;;;7.59;82.83;94620.19;6283852;28;20048;-66
2023/10/25 01:15:12;;;;;;;0.90;0.70;;;;;;;7.42;83.19;94623.50;6281312;28;20048;-66
2023/10/25 01:18:18;;;;;;;3.25;0.70;;;;;;;7.63;82.74;94611.09;6277969;28;20045;-66
2023/10/25 01:21:19;;;;;;;1.58;0.65;;;;;;;7.56;82.97;94609.19;6284140;28;20507;-66
2023/10/25 01:24:23;;;;;;;0.82;0.63;;;;;;;7.64;82.47;94610.16;6283181;28;20516;-67
2023/10/25 01:27:30;;;;;;;0.88;0.80;;;;;;;7.60;82.63;94600.91;6288387;28;20045;-66
2023/10/25 01:30:35;;;;;;;1.00;0.90;;;;;;;7.74;82.28;94601.47;6280347;28;20033;-66
2023/10/25 01:33:39;;;;;;;0.90;0.57;;;;;;;7.78;81.99;94592.34;6281663;28;20135;-67
2023/10/25 01:36:45;;;;;;;0.55;0.52;;;;;;;7.71;82.22;94601.75;6279820;28;20036;-66
2023/10/25 01:39:49;;;;;;;0.82;0.60;;;;;;;7.71;82.29;94596.50;6282890;28;20060;-67
2023/10/25 01:42:54;;;;;;;0.70;0.50;;;;;;;7.75;82.23;94597.88;6256276;28;20040;-67
2023/10/25 01:45:59;;;;;;;0.75;0.60;;;;;;;7.82;82.18;94596.38;6279337;28;20045;-66
2023/10/25 01:49:01;;;;;;;0.70;0.63;;;;;;;7.86;81.76;94595.13;6277633;28;20052;-66
2023/10/25 01:52:05;;;;;;;1.15;0.73;;;;;;;7.83;82.20;94590.16;6279038;28;20041;-67
2023/10/25 01:55:07;;;;;;;0.80;0.73;;;;;;;7.64;82.74;94594.44;6288081;28;20076;-66
2023/10/25 01:58:08;;;;;;;0.88;0.70;;;;;;;7.68;82.92;94591.56;6278123;28;20049;-66
2023/10/25 02:01:10;;;;;;;1.92;0.90;;;;;;;7.68;83.09;94591.56;6281274;28;20040;-68
2023/10/25 02:04:14;;;;;;;1.00;0.75;;;;;;;7.72;82.98;94587.69;6268641;28;20570;-67
2023/10/25 02:07:16;;;;;;;1.02;0.95;;;;;;;7.69;83.01;94577.50;6281369;28;20132;-67
2023/10/25 02:10:20;;;;;;;1.45;0.80;;;;;;;7.72;83.01;94587.69;6248593;28;20127;-67
2023/10/25 02:13:27;;;;;;;1.23;0.60;;;;;;;7.74;82.66;94586.59;6277356;28;20508;-67
2023/10/25 02:16:31;;;;;;;1.33;0.95;;;;;;;7.66;82.74;94581.22;6274240;28;20037;-67
2023/10/25 02:19:39;;;;;;;1.63;1.27;;;;;;;7.71;82.74;94586.03;6261896;28;20036;-66
2023/10/25 02:22:41;;;;;;;0.93;0.93;;;;;;;7.71;82.88;94591.28;6284648;28;20044;-67
2023/10/25 02:25:48;;;;;;;1.48;1.17;;;;;;;7.77;82.84;94577.63;6279399;28;20036;-68
2023/10/25 02:28:52;;;;;;;1.30;0.98;;;;;;;7.77;82.86;94580.25;6275408;28;20045;-69
2023/10/25 02:31:56;;;;;;;1.65;1.20;;;;;;;7.80;82.68;94579.97;6278452;28;20055;-67
2023/10/25 02:34:57;;;;;;;1.73;1.38;;;;;;;7.85;82.61;94583.00;6274548;28;20045;-66
2023/10/25 02:38:01;;;;;;;1.98;1.42;;;;;;;7.82;82.75;94588.50;6280227;28;20032;-66
2023/10/25 02:41:03;;;;;;;1.73;1.40;;;;;;;7.86;82.79;94589.88;6257655;28;20049;-66
2023/10/25 02:44:10;;;;;;;3.30;1.50;;;;;;;7.84;82.71;94591.81;6281357;28;20123;-67
2023/10/25 02:47:12;;;;;;;2.55;1.33;;;;;;;7.85;82.69;94596.09;6277162;28;20059;-67
2023/10/25 02:50:15;;;;;;;1.10;0.80;;;;;;;7.78;83.24;94601.03;6278694;28;20074;-67
2023/10/25 02:53:16;;;;;;;1.52;1.13;;;;;;;7.88;82.82;94609.72;6279474;28;20660;-66
2023/10/25 02:56:18;;;;;;;1.85;1.15;;;;;;;7.86;82.81;94609.03;6279973;28;20420;-66
2023/10/25 02:59:21;;;;;;;1.83;1.17;;;;;;;7.81;83.13;94620.88;6278588;28;20520;-67
2023/10/25 03:02:23;;;;;;;1.02;0.80;;;;;;;7.81;83.39;94610.41;6277452;28;20040;-67
2023/10/25 03:05:26;;;;;;;1.48;0.80;;;;;;;7.76;83.50;94636.19;6267714;28;20044;-66
2023/10/25 03:08:30;;;;;;;1.27;0.70;;;;;;;7.72;84.03;94625.16;6273120;28;20040;-66
2023/10/25 03:11:34;;;;;;;;;;;;;;;7.74;84.05;94633.69;6258091;28;20045;-67
2023/10/25 03:14:38;;;;;;;1.35;0.50;;;;;;;7.76;84.45;94630.97;6273742;28;19920;-66
2023/10/25 03:17:44;;;;;;;0.90;0.52;;;;;;;7.73;84.31;94628.59;6279958;28;20056;-67
2023/10/25 03:20:48;;;;;;;3.17;2.00;;;;;;;7.80;83.84;94637.56;6279247;28;20534;-65
2023/10/25 03:23:53;;;;;;;1.23;1.05;;;;;;;7.82;83.97;94640.88;6277805;28;20083;-66
2023/10/25 03:26:56;;;;;;;0.70;0.50;;;;;;;7.85;82.80;94645.84;6252165;28;20053;-66
2023/10/25 03:29:57;;;;;;;0.35;0.28;;;;;;;7.80;82.43;94654.09;6283873;28;20110;-67
2023/10/25 03:33:02;;;;;;;0.85;0.40;;;;;;;7.81;81.95;94650.53;6292657;28;20522;-66
2023/10/25 03:36:09;;;;;;;0.45;0.28;;;;;;;7.79;81.31;94657.69;6288833;28;20179;-68
2023/10/25 03:39:15;;;;;;;1.00;0.20;;;;;;;7.77;80.49;94659.59;6288997;28;20040;-66
2023/10/25 03:42:17;;;;;;;0.15;0.15;;;;;;;7.71;80.30;94659.34;6284496;28;20060;-66
2023/10/25 03:45:21;;;;;;;0.30;0.20;;;;;;;7.69;79.49;94671.72;6287019;28;20059;-66
2023/10/25 03:48:22;;;;;;;0.30;0.20;;;;;;;7.66;79.04;94680.66;6288892;28;21381;-66
2023/10/25 03:51:27;;;;;;;0.20;0.20;;;;;;;7.62;78.56;94677.50;6284708;28;20515;-69
2023/10/25 03:54:38;;;;;;;0.57;0.20;;;;;;;7.50;77.92;94677.75;6284669;28;20520;-70
2023/10/25 03:57:45;;;;;;;0.73;0.40;;;;;;;7.47;77.67;94689.28;6290387;28;20045;-71
2023/10/25 04:00:48;;;;;;;2.83;0.88;;;;;;;7.44;77.77;94689.56;6288710;28;20772;-71
2023/10/25 04:03:55;;;;;;;2.10;1.00;;;;;;;7.47;77.23;94694.53;6288658;28;20048;-73
2023/10/25 04:07:00;;;;;;;3.78;2.65;;;;;;;7.47;76.99;94697.16;6287554;28;20552;-71
2023/10/25 04:10:05;;;;;;;0.80;0.70;;;;;;;7.55;75.61;94697.31;6283387;28;20045;-68
2023/10/25 04:13:06;;;;;;;0.63;0.35;;;;;;;7.45;75.10;94711.34;6284477;28;20043;-70
2023/10/25 04:16:11;;;;;;;0.50;0.45;;;;;;;7.38;74.69;94724.13;6287577;28;20032;-66
2023/10/25 04:19:19;;;;;;;0.20;0.20;;;;;;;7.33;74.07;94735.00;6285547;28;20140;-64
2023/10/25 04:22:28;;;;;;;0.40;0.30;;;;;;;7.37;72.09;94748.63;6286557;28;20047;-65
2023/10/25 04:25:32;;;;;;;0.10;0.10;;;;;;;7.40;68.05;94750.97;6278933;28;20488;-70
2023/10/25 04:28:34;;;;;;;0.20;0.20;;;;;;;7.11;66.19;94746.47;6279233;28;20041;-66
2023/10/25 04:31:42;;;;;;;0.10;0.10;;;;;;;6.88;66.60;94763.25;6281572;28;20043;-66
2023/10/25 04:34:43;;;;;;;0.30;0.20;;;;;;;6.81;66.61;94769.97;6283714;28;20135;-69
2023/10/25 04:37:50;;;;;;;;;;;;;;;6.81;65.77;94781.25;6283752;28;20041;-65
2023/10/25 04:40:58;;;;;;;0.13;0.13;;;;;;;6.55;65.01;94791.25;6274618;28;19920;-67
2023/10/25 04:43:59;;;;;;;3.13;1.05;;;;;;;6.34;65.22;94798.22;6287252;28;20128;-67
2023/10/25 04:47:03;;;;;;;1.27;0.50;;;;;;;6.10;64.70;94820.13;6280532;28;20047;-67
2023/10/25 04:50:12;;;;;;;0.65;0.40;;;;;;;5.67;64.05;94841.75;6289326;28;20040;-69
2023/10/25 04:53:16;;;;;;;0.40;0.40;;;;;;;5.13;64.34;94837.22;6285695;28;20135;-67
2023/10/25 04:56:23;;;;;;;1.45;0.70;;;;;;;4.79;64.59;94855.41;6276440;28;20036;-68
2023/10/25 04:59:29;;;;;;;1.55;0.73;;;;;;;4.52;65.48;94873.06;6278119;28;20040;-67
2023/10/25 05:02:33;;;;;;;0.55;0.55;;;;;;;4.23;66.03;94863.81;6285534;28;20040;-67
2023/10/25 05:05:42;;;;;;;2.00;0.57;;;;;;;4.00;66.89;94869.81;6275078;28;20067;-67
2023/10/25 05:08:43;;;;;;;4.20;1.08;;;;;;;4.02;67.55;94891.38;6277963;28;20143;-68
2023/10/25 05:11:58;;;;;;;0.80;0.70;;;;;;;3.98;67.26;94895.94;6271154;28;20048;-66
2023/10/25 05:15:01;;;;;;;0.68;0.68;;;;;;;3.81;66.72;94904.09;6286698;28;20036;-68
2023/10/25 05:18:03;;;;;;;0.80;0.52;;;;;;;3.64;66.25;94907.88;6286660;28;20179;-68
2023/10/25 05:21:05;;;;;;;0.60;0.57;;;;;;;3.51;66.25;94912.25;6281320;28;20052;-68
2023/10/25 05:24:16;;;;;;;0.80;0.80;;;;;;;3.48;65.22;94896.84;6280255;28;20049;-67
2023/10/25 05:27:20;;;;;;;0.90;0.90;;;;;;;3.30;64.79;94917.97;6279706;28;20032;-67
2023/10/25 05:30:23;;;;;;;1.15;1.05;;;;;;;3.24;64.45;94912.38;6278505;28;20048;-68
2023/10/25 05:33:24;;;;;;;1.00;0.80;;;;;;;3.15;64.11;94917.25;6286808;28;20091;-68
2023/10/25 05:36:28;;;;;;;1.85;0.85;;;;;;;3.12;64.42;94927.84;6270831;28;20041;-68
2023/10/25 05:39:32;;;;;;;1.75;0.90;;;;;;;3.21;64.00;94916.00;6287335;28;20040;-67
2023/10/25 05:42:57;;;;;;;0.98;0.98;;;;;;;3.44;63.64;94922.25;6281757;28;20044;-68
2023/10/25 05:45:58;;;;;;;1.20;1.10;;;;;;;3.67;62.32;94912.03;6267840;28;20044;-67
2023/10/25 05:49:00;;;;;;;0.98;0.90;;;;;;;3.65;63.10;94919.09;6286597;28;20045;-67
2023/10/25 05:52:05;;;;;;;1.42;1.13;;;;;;;3.74;62.64;94929.72;6281117;28;20041;-67
2023/10/25 05:55:11;;;;;;;1.77;1.10;;;;;;;3.78;61.86;94927.72;6276688;28;20087;-67
2023/10/25 05:58:13;;;;;;;1.45;0.93;;;;;;;3.67;61.63;94933.66;6260331;28;20041;-68
2023/10/25 06:01:15;;;;;;;0.73;0.73;;;;;;;3.66;61.56;94941.59;6287545;28;20507;-68
2023/10/25 06:04:19;;;;;;;1.15;1.02;;;;;;;3.55;61.21;94957.91;6286449;28;20087;-68
2023/10/25 06:07:20;;;;;;;;;;;;;;;3.56;60.98;94962.16;6275977;28;20048;-67
2023/10/25 06:10:21;;;;;;;1.65;1.10;;;;;;;3.30;60.57;94956.13;6288726;28;20070;-67
2023/10/25 06:13:25;;;;;;;;;;;;;;;3.36;60.35;94966.13;6282045;28;20846;-67
2023/10/25 06:16:29;;;;;;;3.60;1.80;;;;;;;3.18;60.52;94965.59;6285822;28;19916;-68
2023/10/25 06:19:33;;;;;;;1.63;1.33;;;;;;;3.05;61.14;94981.13;6280812;28;20063;-68
2023/10/25 06:22:37;;;;;;;1.38;1.27;;;;;;;3.06;61.50;94985.41;6264723;28;20036;-68
2023/10/25 06:25:38;;;;;;;2.92;1.67;;;;;;;3.08;60.75;94983.53;6284931;28;20048;-68
2023/10/25 06:28:43;;;;;;;5.40;2.53;;;;;;;2.93;61.61;95000.13;6274631;28;20052;-67
2023/10/25 06:31:51;;;;;;;3.42;1.95;;;;;;;2.93;62.04;95005.31;6278207;28;20416;-67
2023/10/25 06:34:53;;;;;;;3.15;1.75;;;;;;;2.99;61.66;95015.31;6280687;28;20045;-67
2023/10/25 06:37:58;;;;;;;3.95;1.98;;;;;;;2.91;62.08;95017.56;6284250;28;20040;-67
2023/10/25 06:41:00;;;;;;;3.92;1.90;;;;;;;2.94;61.81;95019.97;6280266;28;20182;-67
2023/10/25 06:44:05;;;;;;;4.40;2.30;;;;;;;2.92;61.41;95027.88;6284771;28;20190;-67
2023/10/25 06:47:09;;;;;;;1.60;1.33;;;;;;;2.94;60.29;95038.16;6268666;28;20032;-67
2023/10/25 06:50:12;;;;;;;4.50;1.98;;;;;;;2.82;60.05;95044.13;6285150;28;20076;-67
2023/10/25 06:53:14;;;;;;;2.65;2.00;;;;;;;2.74;60.23;95046.38;6283443;28;20040;-68
2023/10/25 06:56:15;;;;;;;2.38;1.90;;;;;;;2.74;60.31;95047.22;6283148;28;20047;-67
2023/10/25 06:59:17;;;;;;;2.40;1.88;;;;;;;2.74;59.95;95057.59;6283179;28;20055;-67
2023/10/25 07:02:48;;;;;;;2.80;2.40;;;;;;;2.73;60.60;95062.91;6281396;28;20036;-67
2023/10/25 07:05:50;;;;;;;4.38;2.78;;;;;;;2.95;60.28;95052.81;6284968;28;20096;-68
2023/10/25 07:08:52;;;;;;;5.95;2.78;;;;;;;2.90;60.24;95073.06;6278815;28;20526;-67
2023/10/25 07:11:54;;;;;;;3.92;2.10;;;;;;;2.94;60.13;95084.91;6278157;28;20048;-67
2023/10/25 07:14:58;;;;;;;6.95;3.85;;;;;;;2.95;60.20;95086.59;6283726;28;20032;-67
2023/10/25 07:18:05;;;;;;;4.07;2.90;;;;;;;3.00;59.69;95081.94;6276098;28;20498;-67
2023/10/25 07:21:06;;;;;;;3.92;2.25;;;;;;;2.97;59.58;95089.91;6262329;28;20079;-67
2023/10/25 07:24:07;;;;;;;3.53;2.53;;;;;;;2.91;59.20;95085.13;6278696;28;20557;-68
2023/10/25 07:27:15;;;;;;;6.88;2.60;;;;;;;3.13;59.39;95106.19;6281818;28;20122;-67
2023/10/25 07:30:19;;;;;;;3.10;2.67;;;;;;;3.31;58.68;95098.16;6263868;28;20047;-67
2023/10/25 07:33:24;;;;;;;4.03;2.78;;;;;;;3.45;57.99;95110.25;6283872;28;20517;-67
2023/10/25 07:36:30;;;;;;;4.15;2.80;;;;;;;3.40;58.17;95105.38;6288331;28;20549;-68
2023/10/25 07:39:36;;;;;;;4.00;2.53;;;;;;;3.45;57.82;95100.69;6276241;28;20128;-67
2023/10/25 07:42:37;;;;;;;2.65;2.28;;;;;;;3.40;57.45;95115.78;6283310;28;20053;-68
2023/10/25 07:45:44;;;;;;;3.50;2.28;;;;;;;3.37;57.19;95113.38;6281784;28;20060;-67
2023/10/25 07:48:50;;;;;;;2.47;1.75;;;;;;;3.29;57.35;95126.03;6284994;28;20123;-67
2023/10/25 07:51:54;;;;;;;4.43;2.50;;;;;;;3.24;57.25;95139.31;6263694;28;20049;-68
2023/10/25 07:54:58;;;;;;;2.08;1.88;;;;;;;3.36;57.10;95142.88;6283353;28;20555;-68
2023/10/25 07:58:02;;;;;;;3.50;1.65;;;;;;;3.43;57.59;95148.56;6278685;28;20063;-68
2023/10/25 08:01:06;;;;;;;3.45;1.75;;;;;;;3.53;57.02;95149.59;6265826;28;20041;-67
2023/10/25 08:04:12;;;;;;;2.80;1.88;;;;;;;3.64;55.93;95141.13;6281099;28;20045;-67
2023/10/25 08:07:13;;;;;;;2.78;2.50;;;;;;;3.51;55.91;95161.88;6273855;28;20049;-68
2023/10/25 08:10:15;;;;;;;4.18;2.35;;;;;;;3.46;56.24;95159.59;6279162;28;20083;-68
2023/10/25 08:13:19;;;;;;;7.40;2.45;;;;;;;3.36;56.25;95168.88;6280852;28;20503;-67
2023/10/25 08:16:20;;;;;;;3.17;2.20;;;;;;;3.34;56.87;95168.16;6278440;28;20044;-67
2023/10/25 08:19:21;;;;;;;9.25;4.25;;;;;;;3.47;56.48;95171.63;6278432;28;20041;-67
2023/10/25 08:22:28;;;;;;;1.88;1.75;;;;;;;3.61;55.41;95178.56;6280290;28;20599;-68
2023/10/25 08:25:37;;;;;;;2.13;1.80;;;;;;;3.64;55.39;95172.31;6275276;28;20488;-67
2023/10/25 08:28:44;;;;;;;3.20;1.83;;;;;;;3.78;54.47;95190.47;6259852;28;20056;-68
2023/10/25 08:31:48;;;;;;;3.25;1.80;;;;;;;3.71;54.44;95184.00;6251739;28;20053;-67
2023/10/25 08:34:49;;;;;;;;;;;;;;;3.90;54.34;95194.88;6271409;28;20053;-67
2023/10/25 08:37:53;;;;;;;3.65;1.85;;;;;;;3.89;53.81;95198.41;6276391;28;19924;-68
2023/10/25 08:41:07;;;;;;;2.70;2.35;;;;;;;3.87;54.33;95209.84;6283113;28;20420;-68
2023/10/25 08:44:09;;;;;;;1.80;1.70;;;;;;;3.97;53.95;95206.56;6281417;28;20079;-67
2023/10/25 08:47:15;;;;;;;4.00;1.67;;;;;;;3.99;54.28;95207.31;6280310;28;20052;-67
2023/10/25 08:50:22;;;;;;;2.60;1.90;;;;;;;4.07;53.70;95211.16;6284324;28;20475;-68
2023/10/25 08:53:25;;;;;;;3.45;1.83;;;;;;;4.07;53.54;95231.97;6281006;28;20055;-67
2023/10/25 08:56:27;;;;;;;2.90;1.95;;;;;;;3.96;53.87;95230.94;6274642;28;20508;-68
2023/10/25 08:59:28;;;;;;;5.95;3.58;;;;;;;3.96;53.79;95225.72;6279843;28;20069;-67
2023/10/25 09:02:36;;;;;;;10.02;2.58;;;;;;;3.98;54.06;95218.63;6284611;28;20055;-67
2023/10/25 09:05:41;;;;;;;8.85;4.15;;;;;;;4.08;53.78;95229.28;6259837;28;20048;-69
2023/10/25 09:08:48;;;;;;;9.70;4.10;;;;;;;4.00;54.03;95227.19;6276400;28;20071;-69
2023/10/25 09:11:52;;;;;;;10.52;3.90;;;;;;;4.00;53.95;95235.00;6268475;28;20626;-68
2023/10/25 09:14:54;;;;;;;11.00;3.88;;;;;;;4.02;54.02;95240.94;6277383;28;20048;-71
2023/10/25 09:17:57;;;;;;;8.93;4.05;;;;;;;4.04;53.55;95244.25;6272298;28;20650;-73
2023/10/25 09:21:03;;;;;;;7.13;3.08;;;;;;;4.14;53.88;95246.28;6273782;28;20626;-76
2023/10/25 09:24:09;;;;;;;4.05;2.38;;;;;;;4.33;52.82;95248.47;6275691;28;20463;-68
2023/10/25 09:27:17;;;;;;;3.60;2.90;;;;;;;4.25;52.75;95241.19;6278372;28;20048;-70
2023/10/25 09:30:18;;;;;;;3.85;2.05;;;;;;;4.19;53.05;95247.66;6280253;28;20045;-68
2023/10/25 09:33:27;;;;;;;4.38;2.95;;;;;;;4.12;53.51;95250.75;6284743;28;20097;-68
2023/10/25 09:36:30;;;;;;;3.95;2.58;;;;;;;3.97;54.21;95253.41;6262643;28;20043;-69
2023/10/25 09:39:37;;;;;;;9.57;4.30;;;;;;;3.80;54.38;95258.88;6284923;28;20041;-69
2023/10/25 09:42:45;;;;;;;9.70;4.30;;;;;;;3.62;54.65;95267.81;6277692;28;20041;-68
2023/10/25 09:45:53;;;;;;;7.10;3.97;;;;;;;3.33;55.00;95262.69;6259694;28;20044;-69
2023/10/25 09:49:06;;;;;;;5.25;3.45;;;;;;;3.25;55.87;95278.75;6283214;28;20072;-67
2023/10/25 09:52:16;;;;;;;8.68;4.78;;;;;;;3.17;55.86;95288.78;6282141;28;20063;-71
2023/10/25 09:55:31;;;;;;;6.72;3.42;;;;;;;3.03;56.58;95301.75;6284587;28;20056;-72
2023/10/25 09:58:35;;;;;;;4.90;2.83;;;;;;;2.90;57.05;95307.69;6279338;28;20045;-66
2023/10/25 10:01:42;;;;;;;5.55;2.40;;;;;;;2.85;56.78;95316.69;6284672;28;20041;-67
2023/10/25 10:04:54;;;;;;;5.00;3.45;;;;;;;2.85;56.65;95314.09;6280999;28;20040;-66
2023/10/25 10:08:11;;;;;;;4.47;2.17;;;;;;;2.85;55.89;95325.31;6272772;28;20456;-70
2023/10/25 10:11:21;;;;;;;2.88;1.50;;;;;;;2.72;54.95;95333.91;6282208;28;20036;-70
2023/10/25 10:14:31;;;;;;;2.75;2.17;;;;;;;2.57;55.66;95339.06;6277988;28;20523;-67
2023/10/25 10:17:36;;;;;;;4.25;1.88;;;;;;;2.53;55.54;95347.16;6279170;28;20523;-66
2023/10/25 10:20:41;;;;;;;3.22;1.98;;;;;;;2.53;55.79;95352.34;6278338;28;20044;-66
2023/10/25 10:23:49;;;;;;;2.78;2.00;;;;;;;2.43;56.26;95352.84;6283765;28;20433;-72
2023/10/25 10:26:53;;;;;;;3.22;2.30;;;;;;;2.40;56.97;95357.38;6277978;28;20123;-71
2023/10/25 10:29:57;;;;;;;4.75;2.65;;;;;;;2.33;57.39;95358.66;6278823;28;20036;-69
2023/10/25 10:33:06;;;;;;;2.58;2.17;;;;;;;2.36;57.81;95366.28;6279688;28;20460;-66
2023/10/25 10:36:08;;;;;;;4.13;2.80;;;;;;;2.36;57.96;95374.06;6274172;28;20051;-66
2023/10/25 10:39:19;;;;;;;3.13;2.70;;;;;;;2.43;57.66;95375.38;6275355;28;20051;-67
2023/10/25 10:42:28;;;;;;;3.42;2.60;;;;;;;2.37;57.26;95380.94;6282864;28;20051;-66
2023/10/25 10:45:33;;;;;;;4.47;2.85;;;;;;;2.24;57.65;95381.63;6278060;28;20049;-67
2023/10/25 10:48:38;;;;;;;4.60;3.17;;;;;;;2.10;58.17;95389.34;6282605;28;20045;-67
2023/10/25 10:51:40;;;;;;;8.68;2.90;;;;;;;2.16;57.78;95395.94;6281607;28;20052;-67
2023/10/25 10:54:45;;;;;;;7.85;4.03;;;;;;;2.14;57.68;95406.41;6273966;28;20048;-67
2023/10/25 10:57:52;;;;;;;6.55;3.63;;;;;;;2.01;58.28;95398.47;6263707;28;20512;-66
2023/10/25 11:00:59;;;;;;;9.43;4.28;;;;;;;2.05;58.78;95412.09;6277652;28;20055;-66
2023/10/25 11:04:01;;;;;;;5.15;3.00;;;;;;;2.06;58.65;95413.75;6262355;28;20147;-66
2023/10/25 11:07:02;;;;;;;6.90;3.58;;;;;;;2.08;58.55;95422.31;6278974;28;20048;-67
2023/10/25 11:10:06;;;;;;;8.50;3.97;;;;;;;2.13;58.70;95430.69;6281184;28;20040;-66
2023/10/25 11:13:09;;;;;;;6.47;2.60;;;;;;;2.03;58.79;95434.69;6278457;28;20041;-68
2023/10/25 11:16:15;;;;;;;5.50;3.08;;;;;;;1.99;59.03;95435.78;6277753;28;20331;-66
2023/10/25 11:19:21;;;;;;;5.97;3.22;;;;;;;1.97;59.49;95440.22;6267443;28;20040;-67
2023/10/25 11:22:25;;;;;;;5.35;3.40;;;;;;;2.01;59.19;95446.94;6277744;28;20045;-67
2023/10/25 11:25:30;;;;;;;8.00;3.33;;;;;;;1.87;59.41;95439.00;6277188;28;20491;-69
2023/10/25 11:28:38;;;;;;;8.05;3.70;;;;;;;1.93;59.71;95456.88;6260723;28;20087;-67
2023/10/25 11:31:45;;;;;;;8.13;4.00;;;;;;;1.87;60.41;95450.25;6260849;28;20037;-69
2023/10/25 11:34:56;;;;;;;7.25;3.78;;;;;;;1.89;60.27;95453.59;6275191;28;20047;-68
2023/10/25 11:38:01;;;;;;;5.72;3.55;;;;;;;1.91;60.72;95453.50;6258881;28;20451;-68
2023/10/25 11:41:05;;;;;;;6.70;3.60;;;;;;;1.98;60.55;95457.44;6273039;28;20040;-69
2023/10/25 11:44:09;;;;;;;3.95;2.95;;;;;;;2.01;60.73;95465.09;6278106;28;20049;-69
2023/10/25 11:47:18;;;;;;;;;;;;;;;2.13;59.91;95474.78;6279397;28;20048;-67
2023/10/25 11:50:19;;;;;;;5.50;3.25;;;;;;;1.96;60.21;95483.47;6279812;28;19923;-68
2023/10/25 11:53:26;;;;;;;7.43;3.30;;;;;;;2.03;59.90;95481.38;6273652;28;20049;-68
2023/10/25 11:56:31;;;;;;;7.80;3.35;;;;;;;1.92;60.41;95479.34;6275885;28;20052;-67
2023/10/25 11:59:36;;;;;;;4.63;3.00;;;;;;;1.94;60.32;95493.09;6282826;28;20036;-68
2023/10/25 12:02:37;;;;;;;8.23;3.20;;;;;;;1.96;60.29;95495.63;6278837;28;20186;-68
2023/10/25 12:05:46;;;;;;;5.55;2.97;;;;;;;1.97;60.14;95494.69;6261709;28;20555;-69
2023/10/25 12:08:55;;;;;;;5.82;2.47;;;;;;;1.93;60.14;95509.59;6285949;28;20125;-68
2023/10/25 12:11:59;;;;;;;3.25;2.80;;;;;;;1.88;60.25;95513.34;6266513;28;20049;-67
2023/10/25 12:15:03;;;;;;;11.43;3.58;;;;;;;1.87;60.17;95516.81;6279402;28;20037;-67
2023/10/25 12:18:11;;;;;;;6.70;3.58;;;;;;;1.93;60.13;95516.53;6276761;28;20539;-78
2023/10/25 12:21:14;;;;;;;12.40;3.90;;;;;;;1.88;59.91;95518.53;6270370;28;20041;-70
2023/10/25 12:24:21;;;;;;;7.18;3.25;;;;;;;1.80;60.21;95532.72;6283736;28;20095;-68
2023/10/25 12:27:28;;;;;;;6.65;3.47;;;;;;;1.84;60.44;95530.81;6282645;28;20684;-68
2023/10/25 12:30:33;;;;;;;5.63;3.90;;;;;;;1.77;60.30;95539.81;6279389;28;20044;-64
2023/10/25 12:33:35;;;;;;;6.60;3.63;;;;;;;1.73;60.56;95536.56;6278139;28;20060;-66
2023/10/25 12:36:38;;;;;;;7.07;3.97;;;;;;;1.66;60.79;95540.38;6282549;28;20056;-66
2023/10/25 12:39:42;;;;;;;7.75;3.53;;;;;;;1.67;60.97;95547.25;6282818;28;20611;-64
2023/10/25 12:42:47;;;;;;;8.63;3.65;;;;;;;1.70;60.97;95541.91;6278605;28;20040;-64
2023/10/25 12:45:48;;;;;;;9.82;3.83;;;;;;;1.70;60.90;95562.66;6281950;28;20040;-64
2023/10/25 12:48:50;;;;;;;7.40;3.90;;;;;;;1.72;60.82;95558.19;6275594;28;20041;-72
2023/10/25 12:51:55;;;;;;;8.27;3.53;;;;;;;1.70;61.25;95562.66;6280902;28;20056;-69
2023/10/25 12:55:01;;;;;;;6.05;3.25;;;;;;;1.59;61.44;95562.34;6276811;28;20052;-70
2023/10/25 12:58:05;;;;;;;5.93;3.15;;;;;;;1.57;61.41;95574.53;6281906;28;20106;-69
2023/10/25 13:01:09;;;;;;;6.50;3.17;;;;;;;1.58;61.71;95578.81;6276391;28;20041;-69
2023/10/25 13:04:13;;;;;;;6.55;3.58;;;;;;;1.53;62.27;95578.22;6285736;28;20040;-69
2023/10/25 13:07:20;;;;;;;4.22;3.15;;;;;;;1.52;62.14;95579.13;6282675;28;20032;-68
2023/10/25 13:10:27;;;;;;;6.95;3.90;;;;;;;1.46;62.04;95585.44;6277748;28;20098;-69
2023/10/25 13:13:34;;;;;;;7.93;3.75;;;;;;;1.55;61.48;95584.13;6289056;28;20052;-70
2023/10/25 13:16:41;;;;;;;7.07;2.95;;;;;;;1.54;61.38;95582.47;6283710;28;20040;-69
2023/10/25 13:19:47;;;;;;;4.40;3.40;;;;;;;1.47;61.42;95588.88;6280282;28;20052;-69
2023/10/25 13:22:48;;;;;;;4.88;2.83;;;;;;;1.47;61.23;95586.28;6280615;28;20048;-69
2023/10/25 13:25:55;;;;;;;6.20;2.90;;;;;;;1.45;61.09;95595.91;6284707;28;20056;-69
2023/10/25 13:28:59;;;;;;;8.98;3.90;;;;;;;1.43;60.46;95601.16;6279929;28;20049;-70
2023/10/25 13:32:00;;;;;;;;;;;;;;;1.47;59.86;95602.69;6288169;28;20480;-69
2023/10/25 13:35:05;;;;;;;2.92;1.80;;;;;;;1.43;58.96;95602.91;6284101;28;19986;-70
2023/10/25 13:38:11;;;;;;;4.50;2.50;;;;;;;1.18;59.11;95598.91;6286909;28;20554;-69
2023/10/25 13:41:15;;;;;;;2.20;1.73;;;;;;;1.21;58.47;95596.16;6271964;28;20475;-69
2023/10/25 13:44:16;;;;;;;3.65;1.77;;;;;;;1.18;58.42;95606.69;6277390;28;20048;-69
2023/10/25 13:47:25;;;;;;;4.22;2.50;;;;;;;1.19;58.21;95617.88;6289523;28;20044;-69
2023/10/25 13:50:28;;;;;;;3.17;1.83;;;;;;;1.11;57.69;95611.31;6286514;28;20392;-69
2023/10/25 13:53:30;;;;;;;2.90;1.90;;;;;;;1.14;57.46;95631.06;6282832;28;20077;-69
2023/10/25 13:56:33;;;;;;;;;;;;;;;1.10;57.59;95639.88;6284403;28;20508;-69
2023/10/25 13:59:37;;;;;;;2.53;1.83;;;;;;;1.10;57.26;95638.16;6285678;28;20384;-70
2023/10/25 14:02:41;;;;;;;5.63;1.90;;;;;;;1.02;57.49;95642.00;6279206;28;20459;-69
2023/10/25 14:05:46;;;;;;;7.20;1.90;;;;;;;1.05;56.88;95650.47;6279670;28;20044;-71
2023/10/25 14:08:54;;;;;;;3.65;2.13;;;;;;;0.98;57.05;95656.00;6284092;28;20522;-69
2023/10/25 14:11:57;;;;;;;3.83;3.08;;;;;;;0.97;56.50;95669.88;6274663;28;20048;-70
2023/10/25 14:15:01;;;;;;;3.67;3.05;;;;;;;0.95;55.98;95661.34;6283312;28;20558;-69
2023/10/25 14:18:11;;;;;;;3.65;1.80;;;;;;;0.98;55.56;95661.19;6289051;28;20049;-69
2023/10/25 14:21:16;;;;;;;2.75;1.80;;;;;;;1.00;55.34;95673.16;6281681;28;20614;-69
2023/10/25 14:24:20;;;;;;;2.22;1.85;;;;;;;0.86;56.02;95673.78;6282569;28;20590;-69
2023/10/25 14:27:24;;;;;;;4.18;2.40;;;;;;;0.86;55.92;95685.91;6271937;28;20068;-70
2023/10/25 14:30:27;;;;;;;5.55;1.98;;;;;;;0.86;55.88;95681.56;6279341;28;20045;-69
2023/10/25 14:33:32;;;;;;;5.47;2.65;;;;;;;0.83;55.61;95673.94;6283109;28;20428;-69
2023/10/25 14:36:36;;;;;;;4.78;2.88;;;;;;;0.86;56.58;95685.91;6280363;28;20045;-69
2023/10/25 14:39:45;;;;;;;3.15;2.38;;;;;;;0.86;56.00;95694.50;6283059;28;20037;-70
2023/10/25 14:42:46;;;;;;;5.93;2.70;;;;;;;0.80;56.60;95692.19;6279895;28;20045;-70